Time;durP1;ratioP1;P1;durP2;ratioP2;P2;SDS_P1;SDS_P2;PMS_P1;PMS_P2;Temp;Humidity;BMP_temperature;BMP_pressure;BME280_temperature;BME280_humidity;BME280_pressure;Samples;Min_cycle;Max_cycle;Signal;HPM_P1;HPM_P2
2021/11/27 00:00:16;;;;;;;5.85;1.92;;;;;;;5.39;100.00;98133.03;5002170;28;20034;-67
2021/11/27 00:02:41;;;;;;;6.22;2.20;;;;;;;5.36;100.00;98123.13;5009521;28;20509;-66
2021/11/27 00:05:09;;;;;;;7.57;1.80;;;;;;;5.45;100.00;98128.84;5012810;28;20113;-66
2021/11/27 00:07:38;;;;;;;2.47;1.75;;;;;;;5.43;100.00;98120.47;5005226;28;20105;-66
2021/11/27 00:10:07;;;;;;;2.47;1.70;;;;;;;5.33;100.00;98110.56;4994749;28;20061;-66
2021/11/27 00:12:32;;;;;;;1.60;1.25;;;;;;;5.36;100.00;98122.38;5000800;28;20061;-66
2021/11/27 00:15:02;;;;;;;4.10;1.63;;;;;;;5.34;100.00;98112.06;5003179;28;20475;-66
2021/11/27 00:17:28;;;;;;;3.85;1.70;;;;;;;5.36;100.00;98104.44;4996473;28;20052;-66
2021/11/27 00:19:53;;;;;;;3.78;1.77;;;;;;;5.47;100.00;98113.22;5011869;28;20409;-66
2021/11/27 00:22:19;;;;;;;2.35;1.73;;;;;;;5.44;100.00;98111.28;5003207;28;20126;-66
2021/11/27 00:24:46;;;;;;;4.45;1.65;;;;;;;5.41;100.00;98113.97;4994917;28;20532;-66
2021/11/27 00:27:11;;;;;;;1.70;1.42;;;;;;;5.53;100.00;98102.13;5011931;28;20125;-66
2021/11/27 00:29:38;;;;;;;3.53;1.52;;;;;;;5.48;100.00;98116.63;5010123;28;20033;-66
2021/11/27 00:32:04;;;;;;;4.53;1.80;;;;;;;5.47;100.00;98105.22;5007965;28;20049;-66
2021/11/27 00:34:31;;;;;;;5.00;2.08;;;;;;;5.52;100.00;98101.38;4997605;28;20044;-66
2021/11/27 00:36:59;;;;;;;2.72;1.63;;;;;;;5.37;100.00;98100.66;5011581;28;20030;-66
2021/11/27 00:39:25;;;;;;;5.60;1.88;;;;;;;5.41;100.00;98096.06;5006818;28;20038;-66
2021/11/27 00:41:51;;;;;;;2.55;1.45;;;;;;;5.45;100.00;98102.16;5010283;28;20042;-66
2021/11/27 00:44:17;;;;;;;3.50;1.85;;;;;;;5.43;100.00;98099.13;4998848;28;20030;-66
2021/11/27 00:46:44;;;;;;;2.72;1.60;;;;;;;5.47;100.00;98097.19;5011579;28;20450;-66
2021/11/27 00:49:12;;;;;;;3.50;1.92;;;;;;;5.48;100.00;98090.72;5006365;28;20029;-66
2021/11/27 00:51:38;;;;;;;4.88;2.05;;;;;;;5.49;100.00;98097.59;4997045;28;20100;-66
2021/11/27 00:54:04;;;;;;;6.28;1.88;;;;;;;5.58;100.00;98089.16;5009760;28;20121;-66
2021/11/27 00:56:30;;;;;;;3.70;1.75;;;;;;;5.51;100.00;98086.53;4991370;28;20030;-66
2021/11/27 00:58:56;;;;;;;4.25;2.05;;;;;;;5.40;100.00;98093.78;5022226;28;20041;-66
2021/11/27 01:01:25;;;;;;;3.45;1.73;;;;;;;5.48;100.00;98090.72;5010172;28;20030;-66
2021/11/27 01:03:52;;;;;;;4.75;1.98;;;;;;;5.52;100.00;98096.03;5010383;28;20072;-66
2021/11/27 01:06:21;;;;;;;3.45;1.60;;;;;;;5.46;100.00;98086.88;5000047;28;20398;-66
2021/11/27 01:08:52;;;;;;;5.97;1.90;;;;;;;5.28;100.00;98081.56;5020017;28;20041;-66
2021/11/27 01:11:22;;;;;;;2.67;1.77;;;;;;;5.42;100.00;98075.47;5009204;28;20537;-66
2021/11/27 01:13:50;;;;;;;3.72;1.77;;;;;;;5.37;100.00;98079.28;5010750;28;20061;-67
2021/11/27 01:16:18;;;;;;;3.78;1.55;;;;;;;5.46;100.00;98076.22;5000716;28;20056;-67
2021/11/27 01:18:45;;;;;;;5.68;2.25;;;;;;;5.42;100.00;98091.47;5005259;28;20042;-68
2021/11/27 01:21:14;;;;;;;3.00;1.90;;;;;;;5.53;100.00;98083.47;5009041;28;20121;-67
2021/11/27 01:23:41;;;;;;;5.40;2.35;;;;;;;5.55;100.00;98081.16;5006760;28;20030;-67
2021/11/27 01:26:10;;;;;;;3.72;2.28;;;;;;;5.57;99.88;98084.22;4993404;28;20467;-67
2021/11/27 01:28:37;;;;;;;3.95;1.80;;;;;;;5.44;100.00;98079.28;5016153;28;20040;-67
2021/11/27 01:31:03;;;;;;;2.75;1.27;;;;;;;5.49;100.00;98080.81;4999523;28;20073;-67
2021/11/27 01:33:31;;;;;;;3.60;1.58;;;;;;;5.53;99.74;98076.97;5008261;28;20463;-67
2021/11/27 01:35:57;;;;;;;8.52;2.10;;;;;;;5.57;100.00;98078.88;5008929;28;20057;-68
2021/11/27 01:38:23;;;;;;;4.72;2.30;;;;;;;5.55;99.93;98073.94;5003570;28;20495;-67
2021/11/27 01:40:50;;;;;;;2.50;1.63;;;;;;;5.51;100.00;98073.19;5011021;28;20121;-68
2021/11/27 01:43:16;;;;;;;9.00;2.78;;;;;;;5.55;100.00;98078.50;5002631;28;20111;-67
2021/11/27 01:45:42;;;;;;;3.67;1.85;;;;;;;5.40;100.00;98067.09;5009660;28;20029;-67
2021/11/27 01:48:12;;;;;;;5.32;1.92;;;;;;;5.42;100.00;98064.78;5007420;28;20038;-65
2021/11/27 01:50:46;;;;;;;3.15;1.60;;;;;;;5.50;100.00;98068.97;5000174;28;20095;-67
2021/11/27 01:53:12;;;;;;;3.95;1.95;;;;;;;5.50;100.00;98077.75;4992957;28;20044;-67
2021/11/27 01:55:38;;;;;;;9.00;2.50;;;;;;;5.48;100.00;98068.59;5009106;28;20022;-68
2021/11/27 01:58:04;;;;;;;7.05;2.53;;;;;;;5.43;100.00;98074.31;5000602;28;20514;-68
2021/11/27 02:00:34;;;;;;;7.75;2.50;;;;;;;5.42;100.00;98078.13;5013579;28;20137;-67
2021/11/27 02:03:00;;;;;;;5.07;2.13;;;;;;;5.46;100.00;98078.88;5000302;28;20033;-67
2021/11/27 02:05:43;;;;;;;4.38;2.42;;;;;;;5.45;100.00;98082.72;4997390;28;20042;-67
2021/11/27 02:08:09;;;;;;;5.68;2.05;;;;;;;5.43;100.00;98083.09;5009941;28;20044;-67
2021/11/27 02:10:35;;;;;;;6.13;2.13;;;;;;;5.34;100.00;98082.72;4998937;28;20032;-67
2021/11/27 02:13:01;;;;;;;3.13;1.95;;;;;;;5.36;100.00;98085.75;5016521;28;20047;-67
2021/11/27 02:15:27;;;;;;;4.50;1.92;;;;;;;5.36;100.00;98075.09;5009894;28;20033;-67
2021/11/27 02:17:53;;;;;;;8.43;2.35;;;;;;;5.42;100.00;98086.91;5001702;28;20037;-67
2021/11/27 02:20:20;;;;;;;6.85;2.55;;;;;;;5.45;100.00;98082.72;5009761;28;20031;-67
2021/11/27 02:22:46;;;;;;;3.47;1.45;;;;;;;5.39;100.00;98090.34;5002082;28;20121;-67
2021/11/27 02:25:18;;;;;;;6.43;2.60;;;;;;;5.42;100.00;98086.91;5004899;28;20601;-68
2021/11/27 02:27:49;;;;;;;4.28;2.35;;;;;;;5.50;100.00;98091.09;5004145;28;20387;-67
2021/11/27 02:30:18;;;;;;;;;;;;;;;5.58;99.93;98093.72;5010751;28;20030;-66
2021/11/27 02:32:47;;;;;;;4.30;2.22;;;;;;;5.50;100.00;98077.75;5007186;28;19921;-66
2021/11/27 02:35:14;;;;;;;4.18;2.25;;;;;;;5.46;100.00;98079.66;4995912;28;20099;-65
2021/11/27 02:37:40;;;;;;;4.35;2.53;;;;;;;5.47;100.00;98073.19;5013858;28;20030;-67
2021/11/27 02:40:07;;;;;;;5.32;2.17;;;;;;;5.42;100.00;98078.13;5012393;28;20033;-66
2021/11/27 02:42:34;;;;;;;4.95;2.20;;;;;;;5.52;100.00;98079.28;5010603;28;20038;-67
2021/11/27 02:44:59;;;;;;;6.70;2.92;;;;;;;5.45;100.00;98074.72;5025477;28;20033;-67
2021/11/27 02:47:25;;;;;;;3.63;2.10;;;;;;;5.51;100.00;98073.19;5008326;28;20580;-67
2021/11/27 02:49:51;;;;;;;7.88;3.42;;;;;;;5.48;100.00;98069.34;5002277;28;20051;-68
2021/11/27 02:52:17;;;;;;;5.10;2.08;;;;;;;5.43;100.00;98074.31;5020108;28;20037;-67
2021/11/27 02:54:43;;;;;;;4.28;1.85;;;;;;;5.39;100.00;98073.56;4998004;28;20548;-66
2021/11/27 02:57:09;;;;;;;6.68;2.40;;;;;;;5.40;100.00;98072.44;5013938;28;20037;-66
2021/11/27 02:59:35;;;;;;;6.63;2.22;;;;;;;5.37;100.00;98068.63;5006622;28;20032;-66
2021/11/27 03:02:05;;;;;;;6.40;2.28;;;;;;;5.41;100.00;98065.94;5006126;28;20029;-66
2021/11/27 03:04:36;;;;;;;6.97;2.83;;;;;;;5.41;100.00;98065.94;5026977;28;20442;-66
2021/11/27 03:07:07;;;;;;;8.43;2.28;;;;;;;5.32;100.00;98066.31;5012259;28;20038;-67
2021/11/27 03:09:34;;;;;;;3.95;2.15;;;;;;;5.32;100.00;98063.66;5011522;28;20057;-67
2021/11/27 03:12:02;;;;;;;6.43;2.15;;;;;;;5.47;100.00;98064.41;5006664;28;20062;-65
2021/11/27 03:14:29;;;;;;;7.50;2.15;;;;;;;5.33;100.00;98067.09;5017222;28;20458;-67
2021/11/27 03:16:56;;;;;;;5.13;2.10;;;;;;;5.34;100.00;98064.03;5026014;28;20064;-66
2021/11/27 03:19:23;;;;;;;5.70;2.28;;;;;;;5.28;100.00;98065.56;5012133;28;20084;-68
2021/11/27 03:21:49;;;;;;;7.55;2.75;;;;;;;5.33;100.00;98067.88;5009815;28;20026;-68
2021/11/27 03:24:16;;;;;;;3.33;1.92;;;;;;;5.32;100.00;98079.66;5010222;28;20033;-66
2021/11/27 03:26:42;;;;;;;6.03;2.72;;;;;;;5.35;100.00;98072.81;4995964;28;20029;-67
2021/11/27 03:29:08;;;;;;;6.38;2.60;;;;;;;5.35;100.00;98070.16;5011687;28;20124;-65
2021/11/27 03:31:37;;;;;;;3.72;1.90;;;;;;;5.27;100.00;98079.28;5004131;28;20054;-66
2021/11/27 03:34:07;;;;;;;7.95;1.90;;;;;;;5.28;100.00;98075.50;5022245;28;20124;-66
2021/11/27 03:36:33;;;;;;;6.30;2.05;;;;;;;5.31;100.00;98080.81;5013704;28;20118;-66
2021/11/27 03:38:59;;;;;;;7.07;2.53;;;;;;;5.26;100.00;98075.88;5007506;28;20034;-66
2021/11/27 03:41:25;;;;;;;5.13;2.80;;;;;;;5.25;100.00;98077.03;5020757;28;20034;-66
2021/11/27 03:43:51;;;;;;;3.35;1.85;;;;;;;5.33;100.00;98078.53;5016969;28;20109;-65
2021/11/27 03:46:17;;;;;;;5.75;2.35;;;;;;;5.25;100.00;98078.91;5020483;28;20109;-66
2021/11/27 03:48:44;;;;;;;4.40;2.67;;;;;;;5.20;100.00;98074.75;5011722;28;20038;-66
2021/11/27 03:51:15;;;;;;;4.82;2.15;;;;;;;5.25;100.00;98079.69;5013545;28;20100;-66
2021/11/27 03:53:43;;;;;;;2.75;1.80;;;;;;;5.29;100.00;98080.44;5006614;28;20124;-65
2021/11/27 03:56:15;;;;;;;2.58;1.73;;;;;;;5.23;100.00;98076.63;5020665;28;20037;-67
2021/11/27 03:58:45;;;;;;;5.07;2.28;;;;;;;5.22;100.00;98080.47;5009620;28;20632;-67
2021/11/27 04:01:14;;;;;;;6.80;2.20;;;;;;;5.28;100.00;98076.25;5005507;28;20391;-67
2021/11/27 04:03:42;;;;;;;5.32;2.67;;;;;;;5.32;100.00;98077.00;5011078;28;20048;-67
2021/11/27 04:06:10;;;;;;;7.35;2.55;;;;;;;5.35;100.00;98078.16;5011606;28;20025;-67
2021/11/27 04:08:36;;;;;;;5.25;2.13;;;;;;;5.32;100.00;98087.66;5010919;28;20072;-67
2021/11/27 04:11:03;;;;;;;8.77;2.75;;;;;;;5.30;100.00;98079.28;5007191;28;20061;-67
2021/11/27 04:13:30;;;;;;;4.20;2.50;;;;;;;5.33;100.00;98080.44;5018052;28;20030;-67
2021/11/27 04:15:56;;;;;;;6.43;2.65;;;;;;;5.25;100.00;98087.69;5010874;28;20038;-67
2021/11/27 04:18:22;;;;;;;7.65;2.92;;;;;;;5.32;100.00;98085.00;5011122;28;20360;-66
2021/11/27 04:20:49;;;;;;;4.25;2.20;;;;;;;5.40;100.00;98080.44;5014299;28;20033;-67
2021/11/27 04:23:15;;;;;;;6.05;2.70;;;;;;;5.32;100.00;98084.25;5005287;28;20560;-67
2021/11/27 04:25:41;;;;;;;5.75;2.60;;;;;;;5.28;100.00;98091.50;5019991;28;20509;-67
2021/11/27 04:28:09;;;;;;;7.55;2.67;;;;;;;5.29;100.00;98093.00;5007976;28;20514;-65
2021/11/27 04:30:35;;;;;;;3.85;2.03;;;;;;;5.22;100.00;98093.81;5006915;28;20030;-66
2021/11/27 04:33:02;;;;;;;5.18;2.60;;;;;;;5.25;100.00;98093.03;5003555;28;20111;-67
2021/11/27 04:35:42;;;;;;;4.78;2.33;;;;;;;5.30;100.00;98091.88;5004361;28;20410;-65
2021/11/27 04:38:14;;;;;;;6.90;2.50;;;;;;;5.30;100.00;98095.28;5015455;28;20063;-67
2021/11/27 04:40:42;;;;;;;5.30;1.95;;;;;;;5.30;100.00;98099.88;5009785;28;20491;-66
2021/11/27 04:43:09;;;;;;;6.30;2.50;;;;;;;5.32;100.00;98100.28;5010052;28;20071;-67
2021/11/27 04:45:38;;;;;;;6.32;2.03;;;;;;;5.28;100.00;98102.91;5005539;28;20042;-67
2021/11/27 04:48:04;;;;;;;6.50;2.83;;;;;;;5.21;100.00;98099.50;5013056;28;20038;-66
2021/11/27 04:50:31;;;;;;;15.10;3.63;;;;;;;5.16;100.00;98099.88;5006234;28;20030;-66
2021/11/27 04:52:58;;;;;;;6.38;2.47;;;;;;;5.12;100.00;98104.47;5014382;22;20037;-66
2021/11/27 04:55:26;;;;;;;8.27;2.53;;;;;;;5.10;100.00;98104.06;5021813;28;20132;-67
2021/11/27 04:58:12;;;;;;;5.38;2.03;;;;;;;5.07;100.00;98102.94;5006558;28;20707;-68
2021/11/27 05:00:44;;;;;;;4.28;2.05;;;;;;;5.07;100.00;98107.53;5025314;28;20030;-66
2021/11/27 05:03:16;;;;;;;7.25;2.67;;;;;;;5.09;100.00;98105.97;5026650;28;20034;-66
2021/11/27 05:05:43;;;;;;;3.95;2.00;;;;;;;5.10;100.00;98101.41;5009342;28;20045;-67
2021/11/27 05:08:09;;;;;;;10.20;2.20;;;;;;;5.12;100.00;98109.78;5016230;28;20033;-67
2021/11/27 05:10:36;;;;;;;9.73;2.45;;;;;;;5.09;100.00;98105.97;5004398;28;20034;-67
2021/11/27 05:13:02;;;;;;;5.50;2.38;;;;;;;5.10;100.00;98110.19;5002081;28;20517;-67
2021/11/27 05:15:29;;;;;;;7.07;1.98;;;;;;;5.14;100.00;98113.63;5010358;28;20087;-67
2021/11/27 05:17:59;;;;;;;3.63;1.95;;;;;;;5.16;100.00;98122.00;5002721;28;20030;-67
2021/11/27 05:20:45;;;;;;;6.80;2.55;;;;;;;5.16;100.00;98118.56;4983479;28;20404;-68
2021/11/27 05:23:13;;;;;;;5.05;2.40;;;;;;;5.17;100.00;98120.06;5006322;28;20041;-67
2021/11/27 05:25:39;;;;;;;5.78;2.60;;;;;;;5.14;100.00;98118.94;4991303;28;20046;-67
2021/11/27 05:28:23;;;;;;;5.35;2.50;;;;;;;5.12;100.00;98117.78;4993517;28;20033;-67
2021/11/27 05:31:27;;;;;;;8.52;2.85;;;;;;;5.13;100.00;98117.41;4995835;28;20045;-66
2021/11/27 05:36:32;;;;;;;4.38;2.22;;;;;;;5.15;100.00;98131.13;5000695;28;20064;-67
2021/11/27 05:38:58;;;;;;;5.55;2.50;;;;;;;5.15;100.00;98125.06;5006055;28;20033;-67
2021/11/27 05:41:24;;;;;;;7.40;2.80;;;;;;;5.11;100.00;98134.94;5002568;28;20117;-66
2021/11/27 05:43:56;;;;;;;4.18;2.50;;;;;;;5.07;100.00;98137.59;5007521;28;20038;-67
2021/11/27 05:46:23;;;;;;;6.55;2.42;;;;;;;5.09;100.00;98137.22;5014065;28;20034;-67
2021/11/27 05:48:49;;;;;;;5.60;2.15;;;;;;;5.09;100.00;98137.97;5022113;28;20033;-67
2021/11/27 05:51:37;;;;;;;5.78;2.78;;;;;;;5.11;100.00;98134.94;5008419;28;20079;-67
2021/11/27 05:54:03;;;;;;;9.65;2.63;;;;;;;5.09;100.00;98137.22;5009525;28;20049;-67
2021/11/27 05:56:28;;;;;;;5.55;2.33;;;;;;;5.09;100.00;98143.31;5002590;28;20037;-67
2021/11/27 05:58:56;;;;;;;4.25;2.28;;;;;;;5.07;100.00;98139.53;5002022;28;20041;-68
2021/11/27 06:01:25;;;;;;;8.70;3.03;;;;;;;5.12;100.00;98149.78;5000284;28;20054;-67
2021/11/27 06:03:50;;;;;;;4.78;2.70;;;;;;;5.15;100.00;98149.78;5004686;28;20034;-67
2021/11/27 06:06:16;;;;;;;6.20;2.80;;;;;;;5.10;100.00;98144.84;5007604;28;20540;-67
2021/11/27 06:08:42;;;;;;;9.45;2.58;;;;;;;5.10;100.00;98152.06;5000678;28;20037;-68
2021/11/27 06:11:07;;;;;;;9.68;2.70;;;;;;;5.13;100.00;98149.41;4998290;28;20034;-66
2021/11/27 06:13:53;;;;;;;7.78;2.60;;;;;;;5.10;100.00;98149.41;5002860;28;20129;-66
2021/11/27 06:16:19;;;;;;;5.35;2.33;;;;;;;5.09;100.00;98151.31;4931510;29;20105;-66
2021/11/27 06:18:45;;;;;;;5.28;2.13;;;;;;;5.12;100.00;98160.47;4945035;29;20042;-66
2021/11/27 06:21:11;;;;;;;6.45;2.33;;;;;;;5.16;100.00;98153.22;4947121;29;20518;-65
2021/11/27 06:23:37;;;;;;;5.38;2.72;;;;;;;5.12;100.00;98155.13;4943384;28;20047;-65
2021/11/27 06:26:03;;;;;;;6.13;2.90;;;;;;;5.03;100.00;98149.41;4944278;28;20033;-66
2021/11/27 06:28:30;;;;;;;5.78;2.75;;;;;;;5.04;100.00;98154.38;4942457;29;20052;-66
2021/11/27 06:30:55;;;;;;;7.65;3.22;;;;;;;5.13;100.00;98157.41;4936132;29;20551;-66
2021/11/27 06:33:24;;;;;;;5.38;1.73;;;;;;;5.05;100.00;98158.53;4942880;29;20059;-65
2021/11/27 06:35:49;;;;;;;8.95;2.92;;;;;;;5.02;100.00;98167.31;4944921;28;20156;-66
2021/11/27 06:38:15;;;;;;;5.35;2.75;;;;;;;5.11;100.00;98166.97;4936577;29;20069;-65
2021/11/27 06:40:41;;;;;;;9.25;2.67;;;;;;;5.04;100.00;98159.69;4929405;29;20097;-66
2021/11/27 06:43:17;;;;;;;7.13;2.42;;;;;;;5.02;100.00;98169.97;4933674;29;20113;-65
2021/11/27 06:46:07;;;;;;;7.60;2.90;;;;;;;5.02;100.00;98180.66;4931884;29;20085;-66
2021/11/27 06:48:33;;;;;;;3.78;2.45;;;;;;;5.06;100.00;98188.66;4945481;29;20078;-66
2021/11/27 06:50:58;;;;;;;7.22;3.08;;;;;;;5.07;100.00;98187.53;4945468;29;20069;-66
2021/11/27 06:53:24;;;;;;;9.80;2.92;;;;;;;5.15;100.00;98195.13;4975714;28;20118;-67
2021/11/27 06:55:50;;;;;;;6.05;2.67;;;;;;;5.11;100.00;98194.38;5005213;28;21451;-66
2021/11/27 06:58:16;;;;;;;9.20;3.78;;;;;;;5.13;100.00;98199.34;5005002;28;20529;-67
2021/11/27 07:00:57;;;;;;;7.18;2.30;;;;;;;5.18;100.00;98205.06;5022208;28;20053;-66
2021/11/27 07:03:45;;;;;;;6.55;3.00;;;;;;;5.11;100.00;98201.63;4971929;28;20053;-66
2021/11/27 07:06:30;;;;;;;6.10;2.88;;;;;;;5.19;100.00;98211.91;5009271;28;20052;-66
2021/11/27 07:08:55;;;;;;;5.45;2.25;;;;;;;5.22;100.00;98215.72;5010298;28;20386;-67
2021/11/27 07:11:56;;;;;;;9.40;3.23;;;;;;;5.17;100.00;98214.19;4928097;29;20070;-66
2021/11/27 07:14:22;;;;;;;3.88;2.00;;;;;;;5.18;100.00;98212.28;4989958;28;20328;-66
2021/11/27 07:16:47;;;;;;;5.05;2.45;;;;;;;5.10;100.00;98216.84;5007189;28;20034;-66
2021/11/27 07:19:13;;;;;;;6.78;2.90;;;;;;;5.12;100.00;98225.25;5007662;28;20037;-66
2021/11/27 07:21:38;;;;;;;6.03;2.67;;;;;;;5.23;100.00;98233.25;5010580;28;20033;-65
2021/11/27 07:24:05;;;;;;;5.72;2.95;;;;;;;5.20;100.00;98226.00;5012767;28;20120;-66
2021/11/27 07:26:31;;;;;;;7.53;3.05;;;;;;;5.19;100.00;98217.25;5012880;28;20427;-66
2021/11/27 07:29:06;;;;;;;5.75;2.70;;;;;;;5.17;100.00;98219.53;5013361;28;20403;-65
2021/11/27 07:31:35;;;;;;;4.95;2.22;;;;;;;5.17;100.00;98229.44;5014485;28;20033;-66
2021/11/27 07:34:01;;;;;;;6.28;2.90;;;;;;;5.17;100.00;98232.09;5020765;28;20064;-66
2021/11/27 07:36:26;;;;;;;5.55;2.03;;;;;;;5.23;100.00;98231.34;5023164;28;20823;-66
2021/11/27 07:38:52;;;;;;;11.70;3.03;;;;;;;5.21;100.00;98232.88;5009827;28;20481;-69
2021/11/27 07:41:21;;;;;;;5.53;2.25;;;;;;;5.28;100.00;98240.91;5025289;28;20093;-68
2021/11/27 07:43:47;;;;;;;6.88;2.50;;;;;;;5.21;100.00;98241.63;5010990;28;20045;-67
2021/11/27 07:46:33;;;;;;;4.78;2.63;;;;;;;5.21;100.00;98243.53;5011045;28;20046;-67
2021/11/27 07:49:17;;;;;;;5.68;2.58;;;;;;;5.25;100.00;98230.97;5008186;28;20111;-68
2021/11/27 07:52:02;;;;;;;5.18;2.58;;;;;;;5.19;100.00;98241.25;5011292;28;20110;-66
2021/11/27 07:54:28;;;;;;;4.55;2.28;;;;;;;5.20;100.00;98239.34;5011432;28;20029;-67
2021/11/27 07:56:54;;;;;;;5.63;2.60;;;;;;;5.29;100.00;98240.50;5008552;28;20099;-66
2021/11/27 07:59:20;;;;;;;6.75;3.10;;;;;;;5.23;100.00;98242.03;5005345;28;20030;-67
2021/11/27 08:01:46;;;;;;;5.20;2.45;;;;;;;5.27;100.00;98253.47;5006087;28;20372;-67
2021/11/27 08:04:12;;;;;;;5.78;2.95;;;;;;;5.28;100.00;98246.97;5005714;28;20076;-68
2021/11/27 08:06:40;;;;;;;4.45;2.70;;;;;;;5.26;100.00;98251.19;5004758;28;20041;-65
2021/11/27 08:09:05;;;;;;;10.93;2.92;;;;;;;5.26;100.00;98243.19;5008190;28;20030;-67
2021/11/27 08:11:31;;;;;;;10.70;3.35;;;;;;;5.29;100.00;98256.53;5000174;28;20379;-68
2021/11/27 08:13:59;;;;;;;6.07;3.15;;;;;;;5.27;100.00;98261.47;5008876;28;20038;-67
2021/11/27 08:16:27;;;;;;;4.07;2.60;;;;;;;5.28;100.00;98251.56;5005895;28;20045;-67
2021/11/27 08:18:53;;;;;;;8.32;3.00;;;;;;;5.34;100.00;98255.41;5007636;28;20042;-66
2021/11/27 08:21:18;;;;;;;5.32;2.72;;;;;;;5.28;100.00;98262.97;5005405;28;20029;-67
2021/11/27 08:23:44;;;;;;;5.25;3.00;;;;;;;5.29;100.00;98266.41;5008614;28;20048;-66
2021/11/27 08:26:13;;;;;;;7.78;2.75;;;;;;;5.32;100.00;98260.34;5005722;28;20077;-68
2021/11/27 08:28:39;;;;;;;8.63;3.22;;;;;;;5.41;100.00;98266.84;5008399;28;20068;-66
2021/11/27 08:31:04;;;;;;;8.70;2.40;;;;;;;5.46;100.00;98279.03;5006700;28;20057;-67
2021/11/27 08:33:30;;;;;;;7.70;3.88;;;;;;;5.55;100.00;98268.00;5011480;28;20037;-68
2021/11/27 08:35:56;;;;;;;10.63;2.83;;;;;;;5.53;100.00;98279.06;5008519;28;20033;-67
2021/11/27 08:38:22;;;;;;;9.80;3.22;;;;;;;5.48;100.00;98277.50;5003746;28;20037;-67
2021/11/27 08:40:48;;;;;;;5.22;2.97;;;;;;;5.43;100.00;98269.13;4998234;28;20029;-68
2021/11/27 08:43:14;;;;;;;8.80;2.90;;;;;;;5.45;100.00;98280.94;5001448;28;20025;-68
2021/11/27 08:45:41;;;;;;;5.35;2.90;;;;;;;5.50;100.00;98277.13;4999086;28;20050;-65
2021/11/27 08:48:08;;;;;;;6.55;2.92;;;;;;;5.44;100.00;98274.06;5000182;28;20034;-66
2021/11/27 08:50:34;;;;;;;11.52;4.05;;;;;;;5.44;100.00;98275.97;5008919;28;20100;-65
2021/11/27 08:53:00;;;;;;;5.32;2.38;;;;;;;5.46;100.00;98277.13;5006567;28;20030;-67
2021/11/27 08:55:27;;;;;;;9.00;2.70;;;;;;;5.49;100.00;98273.72;5001320;28;20065;-67
2021/11/27 08:57:53;;;;;;;12.02;3.58;;;;;;;5.54;100.00;98280.56;5003759;28;20064;-67
2021/11/27 09:00:18;;;;;;;12.07;2.92;;;;;;;5.57;100.00;98271.81;4990162;28;20042;-66
2021/11/27 09:02:45;;;;;;;7.03;3.10;;;;;;;5.51;100.00;98276.00;5004489;28;20044;-66
2021/11/27 09:05:11;;;;;;;4.65;3.00;;;;;;;5.64;100.00;98269.13;5004781;28;20519;-65
2021/11/27 09:07:37;;;;;;;7.07;3.17;;;;;;;5.59;100.00;98276.75;5002417;28;20069;-69
2021/11/27 09:10:04;;;;;;;9.10;3.83;;;;;;;5.66;100.00;98290.88;5005048;28;20026;-66
2021/11/27 09:12:30;;;;;;;6.65;3.30;;;;;;;5.65;100.00;98299.28;5001217;28;20398;-69
2021/11/27 09:14:55;;;;;;;10.13;3.00;;;;;;;5.58;100.00;98302.69;5002649;28;20025;-67
2021/11/27 09:17:22;;;;;;;5.78;3.10;;;;;;;5.62;100.00;98298.13;5002823;28;20030;-66
2021/11/27 09:19:47;;;;;;;6.88;2.67;;;;;;;5.65;100.00;98301.94;5009419;28;20375;-67
2021/11/27 09:22:13;;;;;;;6.75;3.40;;;;;;;5.75;100.00;98299.28;5008124;28;20029;-67
2021/11/27 09:24:39;;;;;;;9.25;3.88;;;;;;;5.78;100.00;98298.53;5006334;28;20041;-68
2021/11/27 09:27:04;;;;;;;10.52;3.20;;;;;;;5.77;100.00;98298.91;5010123;28;20053;-67
2021/11/27 09:29:33;;;;;;;7.07;3.40;;;;;;;5.81;100.00;98310.31;5010255;28;20484;-67
2021/11/27 09:31:59;;;;;;;5.88;3.05;;;;;;;5.81;100.00;98297.75;5009838;28;20033;-66
2021/11/27 09:34:24;;;;;;;7.38;2.90;;;;;;;5.80;100.00;98304.25;5000318;28;20534;-65
2021/11/27 09:36:50;;;;;;;7.78;3.05;;;;;;;5.83;100.00;98306.19;5006727;28;20042;-66
2021/11/27 09:39:16;;;;;;;7.30;3.30;;;;;;;5.88;100.00;98319.16;5007064;28;20034;-67
2021/11/27 09:41:44;;;;;;;7.18;3.60;;;;;;;5.91;100.00;98317.63;4983823;28;20042;-67
2021/11/27 09:44:12;;;;;;;6.35;2.67;;;;;;;5.91;100.00;98313.06;5008603;28;20084;-67
2021/11/27 09:46:40;;;;;;;7.10;2.55;;;;;;;5.90;100.00;98314.22;5005103;28;20048;-68
2021/11/27 09:49:08;;;;;;;7.30;2.63;;;;;;;5.91;100.00;98320.28;5006975;28;20033;-67
2021/11/27 09:51:36;;;;;;;8.20;2.70;;;;;;;5.87;100.00;98328.31;5005721;28;20030;-67
2021/11/27 09:54:04;;;;;;;10.57;3.15;;;;;;;5.81;100.00;98324.44;4995989;28;20048;-66
2021/11/27 09:56:30;;;;;;;8.85;3.92;;;;;;;5.82;100.00;98330.56;5001117;28;20562;-68
2021/11/27 09:58:56;;;;;;;6.65;3.25;;;;;;;5.76;100.00;98329.41;5004391;28;20034;-67
2021/11/27 10:01:31;;;;;;;5.13;2.92;;;;;;;5.82;100.00;98323.31;5005616;28;20026;-66
2021/11/27 10:04:04;;;;;;;4.72;2.55;;;;;;;5.80;100.00;98325.59;5010189;28;20046;-67
2021/11/27 10:06:37;;;;;;;8.00;3.30;;;;;;;5.81;100.00;98324.44;5004274;28;20087;-66
2021/11/27 10:09:07;;;;;;;10.70;3.65;;;;;;;5.80;100.00;98322.16;5005070;28;20030;-67
2021/11/27 10:11:34;;;;;;;5.53;2.53;;;;;;;5.79;100.00;98329.41;5000534;28;20045;-67
2021/11/27 10:14:00;;;;;;;6.22;2.90;;;;;;;5.79;100.00;98326.75;5008491;28;20060;-68
2021/11/27 10:16:26;;;;;;;5.32;2.58;;;;;;;5.82;100.00;98323.31;5003453;28;20085;-67
2021/11/27 10:19:08;;;;;;;6.43;3.35;;;;;;;5.83;100.00;98329.41;5011047;28;20041;-67
2021/11/27 10:21:36;;;;;;;6.30;2.78;;;;;;;5.79;100.00;98331.34;4996104;28;20034;-66
2021/11/27 10:24:27;;;;;;;6.50;2.88;;;;;;;5.80;100.00;98330.19;5005812;28;20096;-67
2021/11/27 10:26:53;;;;;;;9.27;3.35;;;;;;;5.82;100.00;98335.91;4993951;28;20057;-68
2021/11/27 10:29:28;;;;;;;7.20;2.65;;;;;;;5.87;100.00;98338.97;5002660;28;20576;-67
2021/11/27 10:32:09;;;;;;;3.70;2.10;;;;;;;5.82;100.00;98339.34;5009826;28;20069;-67
2021/11/27 10:34:37;;;;;;;5.47;2.63;;;;;;;5.82;100.00;98343.91;5010756;28;20120;-66
2021/11/27 10:37:24;;;;;;;5.90;2.47;;;;;;;5.82;100.00;98338.56;4980292;28;20038;-68
2021/11/27 10:40:01;;;;;;;14.23;3.15;;;;;;;5.86;100.00;98337.47;5001831;28;20073;-67
2021/11/27 10:42:27;;;;;;;5.88;2.72;;;;;;;5.85;100.00;98337.84;5007199;28;20446;-66
2021/11/27 10:44:53;;;;;;;11.48;3.28;;;;;;;5.85;100.00;98343.94;5003624;28;20509;-68
2021/11/27 10:47:20;;;;;;;6.38;2.55;;;;;;;5.89;100.00;98349.28;5006385;28;20056;-68
2021/11/27 10:49:48;;;;;;;5.35;3.08;;;;;;;5.96;100.00;98343.97;5001507;28;20038;-67
2021/11/27 10:52:19;;;;;;;6.18;2.45;;;;;;;5.86;100.00;98345.47;5006523;28;20030;-68
2021/11/27 10:54:56;;;;;;;;;;;;;;;5.82;100.00;98343.91;5026710;23;20050;-65
2021/11/27 10:57:25;;;;;;;7.13;2.90;;;;;;;5.74;100.00;98339.69;5021826;28;19917;-65
2021/11/27 10:59:50;;;;;;;7.30;3.20;;;;;;;5.78;100.00;98345.81;5020903;28;20021;-66
2021/11/27 11:02:17;;;;;;;5.88;2.35;;;;;;;5.69;100.00;98340.09;5025678;28;20904;-66
2021/11/27 11:04:43;;;;;;;6.93;2.80;;;;;;;5.69;100.00;98345.44;5019953;28;20042;-65
2021/11/27 11:07:25;;;;;;;4.03;2.45;;;;;;;5.76;100.00;98350.78;5007320;28;20041;-66
2021/11/27 11:10:17;;;;;;;7.88;2.40;;;;;;;5.69;100.00;98348.09;5001628;28;20040;-65
2021/11/27 11:12:44;;;;;;;6.97;2.45;;;;;;;5.65;100.00;98339.31;4999575;28;20100;-66
2021/11/27 11:15:38;;;;;;;7.20;2.95;;;;;;;5.68;100.00;98349.22;5010997;28;20128;-65
2021/11/27 11:18:16;;;;;;;7.30;3.40;;;;;;;5.64;100.00;98346.56;5012604;28;20030;-66
2021/11/27 11:20:49;;;;;;;5.97;2.83;;;;;;;5.70;100.00;98349.59;5011662;28;20045;-65
2021/11/27 11:23:24;;;;;;;11.10;3.35;;;;;;;5.62;100.00;98343.50;5013176;28;20030;-66
2021/11/27 11:26:06;;;;;;;11.02;3.40;;;;;;;5.58;100.00;98348.06;5003231;28;20053;-65
2021/11/27 11:28:49;;;;;;;4.88;2.97;;;;;;;5.56;100.00;98352.25;5011857;28;20116;-65
2021/11/27 11:31:18;;;;;;;6.53;3.58;;;;;;;5.53;100.00;98355.69;5009395;28;20116;-66
2021/11/27 11:33:55;;;;;;;6.32;2.78;;;;;;;5.49;100.00;98348.44;5012720;28;20517;-66
2021/11/27 11:36:22;;;;;;;9.93;2.95;;;;;;;5.59;100.00;98356.84;5013248;28;20108;-66
2021/11/27 11:38:53;;;;;;;9.23;2.65;;;;;;;5.62;100.00;98353.41;5016233;28;20036;-66
2021/11/27 11:41:21;;;;;;;5.38;3.05;;;;;;;5.59;100.00;98349.59;5023623;28;20498;-66
2021/11/27 11:43:51;;;;;;;7.28;3.05;;;;;;;5.53;100.00;98359.13;5009538;28;20104;-66